createdAt,value
2022-08-12T00:02:03.060Z,102152.34
2022-08-12T00:04:50.028Z,102149.63
2022-08-12T00:07:36.011Z,102152.56
2022-08-12T00:10:21.749Z,102159.28
2022-08-12T00:13:06.470Z,102157.47
2022-08-12T00:15:51.809Z,102151.38
2022-08-12T00:18:37.198Z,102154.25
2022-08-12T00:21:22.463Z,102150.88
2022-08-12T00:24:07.857Z,102154.25
2022-08-12T00:26:54.505Z,102152.53
2022-08-12T00:29:41.104Z,102152.53
2022-08-12T00:32:35.761Z,102153.63
2022-08-12T00:35:22.729Z,102152.25
2022-08-12T00:38:12.086Z,102153.34
2022-08-12T00:40:58.924Z,102147.97
2022-08-12T00:43:26.455Z,102149.97
2022-08-12T00:46:11.610Z,102149.97
2022-08-12T00:48:39.657Z,102154.94
2022-08-12T00:51:07.619Z,102156.16
2022-08-12T00:53:35.022Z,102155.38
2022-08-12T00:56:02.600Z,102156.63
2022-08-12T00:58:30.754Z,102159.06
2022-08-12T01:01:01.417Z,102149.09
2022-08-12T01:03:48.603Z,102153.59
2022-08-12T01:06:36.496Z,102158.91
2022-08-12T01:09:23.481Z,102155.19
2022-08-12T01:11:51.245Z,102163.75
2022-08-12T01:14:20.939Z,102152.47
2022-08-12T01:16:48.654Z,102156.31
2022-08-12T01:19:18.034Z,102151.59
2022-08-12T01:22:19.955Z,102154.34
2022-08-12T01:24:54.399Z,102152.47
2022-08-12T01:27:22.429Z,102151.00
2022-08-12T01:29:52.771Z,102155.09
2022-08-12T01:32:21.637Z,102147.41
2022-08-12T01:35:01.102Z,102142.19
2022-08-12T01:37:30.499Z,102150.03
2022-08-12T01:40:35.056Z,102146.53
2022-08-12T01:42:48.888Z,102142.69
2022-08-12T01:45:17.735Z,102143.91
2022-08-12T01:48:08.027Z,102138.00
2022-08-12T01:51:12.046Z,102147.66
2022-08-12T01:54:06.394Z,102134.97
2022-08-12T01:56:41.713Z,102142.66
2022-08-12T01:59:29.058Z,102137.41
2022-08-12T02:01:57.239Z,102135.13
2022-08-12T02:05:04.104Z,102139.06
2022-08-12T02:08:17.122Z,102142.47
2022-08-12T02:11:13.966Z,102134.53
2022-08-12T02:13:49.015Z,102137.03
2022-08-12T02:16:41.389Z,102132.31
2022-08-12T02:19:27.583Z,102136.25
2022-08-12T02:22:28.233Z,102128.72
2022-08-12T02:25:05.529Z,102141.63
2022-08-12T02:27:53.975Z,102126.34
2022-08-12T02:30:23.378Z,102125.25
2022-08-12T02:32:52.456Z,102128.31
2022-08-12T02:35:22.903Z,102119.44
2022-08-12T02:37:52.465Z,102120.22
2022-08-12T02:40:20.900Z,102117.41
2022-08-12T02:43:12.154Z,102119.91
2022-08-12T02:46:00.197Z,102114.97
2022-08-12T02:48:32.081Z,102118.28
2022-08-12T02:51:04.425Z,102118.38
2022-08-12T02:53:34.213Z,102120.66
2022-08-12T02:56:02.997Z,102118.16
2022-08-12T02:58:35.402Z,102116.94
2022-08-12T03:01:09.651Z,102118.50
2022-08-12T03:03:36.710Z,102107.59
2022-08-12T03:06:08.660Z,102104.84
2022-08-12T03:08:46.053Z,102106.47
2022-08-12T03:11:31.256Z,102096.09
2022-08-12T03:14:02.125Z,102095.28
2022-08-12T03:16:33.398Z,102092.34
2022-08-12T03:19:00.518Z,102095.28
2022-08-12T03:21:55.534Z,102088.13
2022-08-12T03:24:16.884Z,102082.44
2022-08-12T03:26:47.224Z,102081.34
2022-08-12T03:29:16.357Z,102085.75
2022-08-12T03:31:44.073Z,102083.06
2022-08-12T03:34:14.326Z,102082.09
2022-08-12T03:36:42.332Z,102085.16
2022-08-12T03:39:17.461Z,102079.63
2022-08-12T03:41:57.924Z,102087.38
2022-08-12T03:44:49.885Z,102083.03
2022-08-12T03:47:41.275Z,102086.41
2022-08-12T03:50:27.086Z,102077.25
2022-08-12T03:53:11.960Z,102074.88
2022-08-12T03:55:57.305Z,102086.22
2022-08-12T03:58:42.649Z,102088.81
2022-08-12T04:01:09.095Z,102089.69
2022-08-12T04:03:54.950Z,102081.97
2022-08-12T04:06:35.461Z,102071.38
2022-08-12T04:09:14.652Z,102086.97
2022-08-12T04:12:02.807Z,102075.50
2022-08-12T04:14:29.318Z,102082.50
2022-08-12T04:16:57.156Z,102082.72
2022-08-12T04:19:25.038Z,102082.16
2022-08-12T04:22:01.861Z,102081.41
2022-08-12T04:24:31.951Z,102079.69
2022-08-12T04:26:58.396Z,102068.09
2022-08-12T04:30:21.161Z,102074.66
2022-08-12T04:32:13.764Z,102080.44
2022-08-12T04:34:42.164Z,102072.78
2022-08-12T04:37:08.766Z,102074.75
2022-08-12T04:39:35.709Z,102064.84
2022-08-12T04:42:02.233Z,102073.03
2022-08-12T04:44:31.762Z,102063.72
2022-08-12T04:46:58.306Z,102060.03
2022-08-12T04:49:25.657Z,102064.59
2022-08-12T04:51:54.691Z,102068.84
2022-08-12T04:54:26.890Z,102071.69
2022-08-12T04:57:03.262Z,102068.97
2022-08-12T04:59:48.433Z,102067.84
2022-08-12T05:02:22.900Z,102069.59
2022-08-12T05:05:01.002Z,102072.88
2022-08-12T05:07:28.115Z,102071.56
2022-08-12T05:10:00.714Z,102068.78
2022-08-12T05:12:34.639Z,102070.41
2022-08-12T05:15:01.281Z,102068.44
2022-08-12T05:17:28.256Z,102076.16
2022-08-12T05:19:54.967Z,102066.09
2022-08-12T05:22:24.015Z,102062.69
2022-08-12T05:24:50.400Z,102064.84
2022-08-12T05:27:17.922Z,102069.47
2022-08-12T05:30:06.371Z,102065.19
2022-08-12T05:32:36.385Z,102065.00
2022-08-12T05:35:06.386Z,102059.59
2022-08-12T05:37:36.362Z,102064.84
2022-08-12T05:40:09.927Z,102061.91
2022-08-12T05:42:36.753Z,102061.81
2022-08-12T05:45:03.603Z,102067.69
2022-08-12T05:47:36.572Z,102070.69
2022-08-12T05:50:16.522Z,102076.00
2022-08-12T05:52:43.725Z,102085.72
2022-08-12T05:55:10.335Z,102082.34
2022-08-12T05:57:38.194Z,102088.38
2022-08-12T06:00:07.575Z,102092.03
2022-08-12T06:02:35.256Z,102088.13
2022-08-12T06:05:02.566Z,102089.66
2022-08-12T06:08:00.127Z,102086.84
2022-08-12T06:10:17.600Z,102086.38
2022-08-12T06:12:59.025Z,102078.22
2022-08-12T06:15:25.698Z,102083.03
2022-08-12T06:17:52.274Z,102087.28
2022-08-12T06:20:27.045Z,102081.13
2022-08-12T06:22:56.769Z,102089.97
2022-08-12T06:25:23.347Z,102091.44
2022-08-12T06:28:06.168Z,102089.13
2022-08-12T06:30:38.630Z,102084.84
2022-08-12T06:33:24.939Z,102076.56
2022-08-12T06:35:57.738Z,102081.94
2022-08-12T06:38:27.205Z,102076.44
2022-08-12T06:41:19.300Z,102074.66
2022-08-12T06:44:05.986Z,102071.59
2022-08-12T06:46:36.676Z,102064.84
2022-08-12T06:49:03.620Z,102069.09
2022-08-12T06:51:32.093Z,102063.53
2022-08-12T06:54:01.900Z,102072.25
2022-08-12T06:56:46.317Z,102062.50
2022-08-12T06:59:15.680Z,102063.56
2022-08-12T07:01:51.164Z,102059.47
2022-08-12T07:04:36.848Z,102057.31
2022-08-12T07:07:07.162Z,102056.28
2022-08-12T07:10:00.108Z,102061.81
2022-08-12T07:12:22.036Z,102063.22
2022-08-12T07:14:51.252Z,102059.53
2022-08-12T07:17:17.720Z,102062.00
2022-08-12T07:19:46.750Z,102068.84
2022-08-12T07:22:15.425Z,102067.44
2022-08-12T07:24:42.238Z,102065.88
2022-08-12T07:27:08.673Z,102066.94
2022-08-12T07:29:58.310Z,102061.97
2022-08-12T07:32:24.439Z,102061.19
2022-08-12T07:34:52.330Z,102066.13
2022-08-12T07:37:18.733Z,102053.91
2022-08-12T07:39:51.382Z,102061.09
2022-08-12T07:42:26.981Z,102059.09
2022-08-12T07:44:53.495Z,102063.31
2022-08-12T07:47:19.972Z,102066.56
2022-08-12T07:50:05.404Z,102072.75
2022-08-12T07:52:42.563Z,102072.41
2022-08-12T07:55:10.226Z,102073.53
2022-08-12T07:57:53.267Z,102075.28
2022-08-12T08:00:20.025Z,102073.91
2022-08-12T08:02:46.681Z,102075.66
2022-08-12T08:05:15.531Z,102077.00
2022-08-12T08:07:42.446Z,102075.22
2022-08-12T08:10:11.509Z,102085.59
2022-08-12T08:12:53.981Z,102088.78
2022-08-12T08:15:38.639Z,102079.06
2022-08-12T08:18:13.222Z,102073.19
2022-08-12T08:20:44.385Z,102076.38
2022-08-12T08:23:17.344Z,102067.13
2022-08-12T08:25:45.265Z,102074.97
2022-08-12T08:28:16.983Z,102065.28
2022-08-12T08:30:45.734Z,102067.19
2022-08-12T08:33:23.515Z,102067.38
2022-08-12T08:36:02.159Z,102078.56
2022-08-12T08:38:33.333Z,102076.94
2022-08-12T08:42:15.405Z,102067.28
2022-08-12T08:44:07.781Z,102066.81
2022-08-12T08:46:37.444Z,102062.41
2022-08-12T08:49:05.157Z,102068.50
2022-08-12T08:51:31.534Z,102061.53
2022-08-12T08:53:57.970Z,102066.66
2022-08-12T08:56:24.591Z,102065.69
2022-08-12T08:58:51.091Z,102073.28
2022-08-12T09:01:21.614Z,102070.94
2022-08-12T09:05:11.267Z,102076.06
2022-08-12T09:06:37.144Z,102077.69
2022-08-12T09:09:21.313Z,102064.16
2022-08-12T09:14:54.169Z,102085.84
2022-08-12T09:17:22.156Z,102075.22
2022-08-12T09:19:53.630Z,102076.75
2022-08-12T09:22:28.499Z,102073.63
2022-08-12T09:24:55.888Z,102067.00
2022-08-12T09:28:03.823Z,102071.97
2022-08-12T09:30:15.807Z,102074.09
2022-08-12T09:33:04.604Z,102069.66
2022-08-12T09:35:44.268Z,102072.19
2022-08-12T09:38:28.582Z,102069.97
2022-08-12T09:42:09.198Z,102067.28
2022-08-12T09:44:06.086Z,102064.25
2022-08-12T09:46:34.613Z,102051.88
2022-08-12T09:49:01.628Z,102052.16
2022-08-12T09:51:37.475Z,102053.59
2022-08-12T09:54:19.191Z,102057.63
2022-08-12T09:57:03.079Z,102057.22
2022-08-12T10:00:15.967Z,102046.34
2022-08-12T10:02:41.976Z,102047.00
2022-08-12T10:05:13.827Z,102039.84
2022-08-12T10:07:44.062Z,102045.84
2022-08-12T10:10:22.578Z,102035.47
2022-08-12T10:13:12.914Z,102042.00
2022-08-12T10:16:03.019Z,102035.13
2022-08-12T10:18:32.607Z,102031.38
2022-08-12T10:20:59.274Z,102036.41
2022-08-12T10:23:40.042Z,102031.13
2022-08-12T10:26:41.562Z,102024.38
2022-08-12T10:30:40.962Z,102016.28
2022-08-12T10:32:43.118Z,102016.66
2022-08-12T10:35:07.264Z,102005.44
2022-08-12T10:38:34.246Z,102014.34
2022-08-12T10:40:24.050Z,101997.03
2022-08-12T10:43:11.850Z,101992.53
2022-08-12T10:45:43.558Z,101997.75
2022-08-12T10:48:21.790Z,102002.75
2022-08-12T10:55:07.018Z,101993.41
2022-08-12T10:58:15.289Z,101988.44
2022-08-12T11:00:34.074Z,101984.97
2022-08-12T11:04:27.908Z,101987.31
2022-08-12T11:07:06.491Z,101991.09
2022-08-12T11:08:42.137Z,101982.41
2022-08-12T11:11:13.787Z,101980.25
2022-08-12T11:13:46.680Z,101968.94
2022-08-12T11:16:22.626Z,101976.22
2022-08-12T11:18:55.144Z,101975.81
2022-08-12T11:21:58.197Z,101973.59
2022-08-12T11:24:30.806Z,101973.63
2022-08-12T11:26:58.645Z,101973.22
2022-08-12T11:29:27.521Z,101968.06
2022-08-12T11:32:13.900Z,101969.78
2022-08-12T11:34:53.195Z,101975.31
2022-08-12T11:37:25.548Z,101972.34
2022-08-12T11:42:35.227Z,101962.50
2022-08-12T11:45:03.618Z,101962.69
2022-08-12T11:47:31.609Z,101958.38
2022-08-12T11:49:58.046Z,101963.78
2022-08-12T11:52:56.073Z,101952.78
2022-08-12T11:55:11.012Z,101940.47
2022-08-12T11:59:35.797Z,101944.06
2022-08-12T12:03:46.122Z,101952.84
2022-08-12T12:06:16.842Z,101942.03
2022-08-12T12:08:50.552Z,101945.47
2022-08-12T12:11:18.780Z,101941.56
2022-08-12T12:14:08.432Z,101941.00
2022-08-12T12:16:33.517Z,101942.50
2022-08-12T12:19:05.475Z,101940.44
2022-08-12T12:21:46.974Z,101926.66
2022-08-12T12:24:21.656Z,101937.22
2022-08-12T12:27:00.221Z,101931.97
2022-08-12T12:30:17.535Z,101927.09
2022-08-12T12:32:15.974Z,101932.78
2022-08-12T12:35:14.440Z,101927.50
2022-08-12T12:38:03.513Z,101931.41
2022-08-12T12:40:15.255Z,101919.13
2022-08-12T12:42:55.512Z,101921.34
2022-08-12T12:45:26.947Z,101923.75
2022-08-12T12:47:57.421Z,101923.91
2022-08-12T12:50:35.999Z,101925.06
2022-08-12T12:54:05.753Z,101922.19
2022-08-12T12:55:58.949Z,101918.38
2022-08-12T12:58:25.456Z,101916.72
2022-08-12T13:00:53.825Z,101918.47
2022-08-12T13:03:21.854Z,101911.06
2022-08-12T13:05:53.928Z,101906.53
2022-08-12T13:08:27.978Z,101906.28
2022-08-12T13:10:58.251Z,101907.22
2022-08-12T13:14:07.822Z,101909.84
2022-08-12T13:16:14.381Z,101914.75
2022-08-12T13:18:48.331Z,101906.34
2022-08-12T13:21:32.896Z,101903.16
2022-08-12T13:24:02.530Z,101899.06
2022-08-12T13:26:38.672Z,101900.97
2022-08-12T13:29:05.082Z,101896.41
2022-08-12T13:31:31.470Z,101889.38
2022-08-12T13:34:32.464Z,101896.31
2022-08-12T13:36:50.617Z,101892.19
2022-08-12T13:39:20.425Z,101891.56
2022-08-12T13:41:47.332Z,101892.44
2022-08-12T13:44:16.141Z,101889.00
2022-08-12T13:46:43.480Z,101884.72
2022-08-12T13:49:11.547Z,101883.16
2022-08-12T13:51:48.859Z,101878.09
2022-08-12T13:54:20.213Z,101883.41
2022-08-12T13:56:49.915Z,101880.31
2022-08-12T13:59:20.310Z,101866.75
2022-08-12T14:01:54.351Z,101873.50
2022-08-12T14:04:23.280Z,101870.16
2022-08-12T14:06:51.371Z,101863.31
2022-08-12T14:09:19.972Z,101867.69
2022-08-12T14:11:58.851Z,101868.31
2022-08-12T14:14:31.740Z,101857.44
2022-08-12T14:17:05.488Z,101855.88
2022-08-12T14:19:40.657Z,101853.53
2022-08-12T14:22:17.225Z,101859.13
2022-08-12T14:24:43.841Z,101856.97
2022-08-12T14:27:12.105Z,101854.75
2022-08-12T14:30:04.444Z,101835.44
2022-08-12T14:32:34.195Z,101848.25
2022-08-12T14:35:00.585Z,101843.69
2022-08-12T14:37:55.611Z,101852.53
2022-08-12T14:40:18.594Z,101850.81
2022-08-12T14:42:49.824Z,101844.97
2022-08-12T14:45:17.820Z,101840.44
2022-08-12T14:47:53.599Z,101830.00
2022-08-12T14:50:58.856Z,101836.91
2022-08-12T14:54:49.890Z,101837.00
2022-08-12T14:59:23.317Z,101824.94
2022-08-12T15:01:50.797Z,101827.78
2022-08-12T15:04:22.461Z,101817.91
2022-08-12T15:06:52.035Z,101823.63
2022-08-12T15:09:19.223Z,101811.06
2022-08-12T15:12:03.918Z,101822.75
2022-08-12T15:14:31.836Z,101812.63
2022-08-12T15:17:00.723Z,101816.66
2022-08-12T15:20:31.700Z,101811.06
2022-08-12T15:22:35.514Z,101808.25
2022-08-12T15:25:03.823Z,101800.03
2022-08-12T15:28:04.180Z,101805.31
2022-08-12T15:30:22.827Z,101805.59
2022-08-12T15:32:50.627Z,101808.91
2022-08-12T15:35:17.100Z,101810.13
2022-08-12T15:38:08.676Z,101796.22
2022-08-12T15:40:31.040Z,101805.47
2022-08-12T15:43:01.275Z,101802.78
2022-08-12T15:45:32.163Z,101798.31
2022-08-12T15:48:16.365Z,101804.38
2022-08-12T15:50:45.477Z,101802.91
2022-08-12T15:53:15.337Z,101809.22
2022-08-12T15:55:45.887Z,101804.66
2022-08-12T15:58:13.330Z,101802.38
2022-08-12T16:00:43.150Z,101805.47
2022-08-12T16:03:13.498Z,101794.66
2022-08-12T16:06:11.360Z,101799.88
2022-08-12T16:08:36.326Z,101804.25
2022-08-12T16:11:07.233Z,101802.41
2022-08-12T16:13:44.255Z,101790.03
2022-08-12T16:16:22.733Z,101792.91
2022-08-12T16:18:51.330Z,101793.75
2022-08-12T16:21:50.260Z,101791.13
2022-08-12T16:24:08.002Z,101795.78
2022-08-12T16:26:35.728Z,101793.59
2022-08-12T16:29:14.506Z,101789.16
2022-08-12T16:31:43.020Z,101779.03
2022-08-12T16:34:26.042Z,101779.56
2022-08-12T16:37:01.977Z,101783.72
2022-08-12T16:39:32.342Z,101777.03
2022-08-12T16:42:02.239Z,101774.28
2022-08-12T16:44:32.583Z,101763.28
2022-08-12T16:47:01.609Z,101771.28
2022-08-12T16:49:41.691Z,101775.38
2022-08-12T16:52:12.495Z,101763.63
2022-08-12T16:54:39.552Z,101764.72
2022-08-12T16:57:09.561Z,101763.16
2022-08-12T16:59:53.111Z,101768.69
2022-08-12T17:02:33.650Z,101766.66
2022-08-12T17:05:03.151Z,101760.97
2022-08-12T17:07:36.579Z,101763.53
2022-08-12T17:10:06.614Z,101764.28
2022-08-12T17:12:33.466Z,101764.19
2022-08-12T17:15:51.000Z,101759.41
2022-08-12T17:18:38.987Z,101757.09
2022-08-12T17:20:46.892Z,101747.97
2022-08-12T17:23:19.436Z,101757.19
2022-08-12T17:25:53.036Z,101761.13
2022-08-12T17:28:21.273Z,101761.09
2022-08-12T17:30:57.220Z,101757.03
2022-08-12T17:33:27.613Z,101749.78
2022-08-12T17:35:58.337Z,101748.66
2022-08-12T17:38:24.850Z,101748.47
2022-08-12T17:40:51.700Z,101744.34
2022-08-12T17:43:56.615Z,101754.78
2022-08-12T17:46:08.303Z,101751.84
2022-08-12T17:48:54.608Z,101750.69
2022-08-12T17:51:24.293Z,101744.44
2022-08-12T17:54:11.224Z,101745.38
2022-08-12T17:56:39.305Z,101751.50
2022-08-12T17:59:09.675Z,101755.47
2022-08-12T18:01:43.273Z,101751.63
2022-08-12T18:04:21.311Z,101753.41
2022-08-12T18:06:50.518Z,101756.00
2022-08-12T18:09:17.981Z,101763.38
2022-08-12T18:12:07.897Z,101764.84
2022-08-12T18:14:37.244Z,101769.75
2022-08-12T18:17:05.706Z,101767.06
2022-08-12T18:20:05.909Z,101769.22
2022-08-12T18:22:30.622Z,101774.31
2022-08-12T18:25:05.304Z,101773.19
2022-08-12T18:27:44.342Z,101771.69
2022-08-12T18:30:20.875Z,101771.50
2022-08-12T18:33:03.166Z,101770.38
2022-08-12T18:35:47.401Z,101771.66
2022-08-12T18:38:19.924Z,101779.16
2022-08-12T18:41:07.605Z,101770.06
2022-08-12T18:43:57.582Z,101778.63
2022-08-12T18:46:54.239Z,101781.59
2022-08-12T18:49:34.956Z,101779.88
2022-08-12T18:52:05.713Z,101769.34
2022-08-12T18:54:52.301Z,101778.72
2022-08-12T18:58:05.973Z,101779.56
2022-08-12T19:00:15.794Z,101783.66
2022-08-12T19:02:44.651Z,101782.28
2022-08-12T19:05:14.164Z,101786.78
2022-08-12T19:08:00.921Z,101775.34
2022-08-12T19:10:30.281Z,101784.78
2022-08-12T19:13:23.216Z,101782.53
2022-08-12T19:15:53.203Z,101792.78
2022-08-12T19:18:21.863Z,101786.50
2022-08-12T19:20:50.730Z,101788.38
2022-08-12T19:23:21.220Z,101789.03
2022-08-12T19:26:00.502Z,101783.81
2022-08-12T19:28:34.614Z,101791.88
2022-08-12T19:31:44.636Z,101788.03
2022-08-12T19:34:56.257Z,101788.63
2022-08-12T19:38:02.551Z,101783.69
2022-08-12T19:40:31.930Z,101794.97
2022-08-12T19:43:19.107Z,101799.38
2022-08-12T19:45:50.302Z,101797.19
2022-08-12T19:48:19.604Z,101796.81
2022-08-12T19:50:50.697Z,101795.16
2022-08-12T19:53:19.528Z,101798.53
2022-08-12T19:58:20.361Z,101794.50
2022-08-12T20:00:52.601Z,101801.69
2022-08-12T20:03:37.881Z,101798.47
2022-08-12T20:06:16.262Z,101802.06
2022-08-12T20:08:56.449Z,101809.66
2022-08-12T20:12:11.276Z,101804.94
2022-08-12T20:14:19.020Z,101801.38
2022-08-12T20:16:52.806Z,101803.56
2022-08-12T20:19:52.330Z,101797.53
2022-08-12T20:22:14.811Z,101802.31
2022-08-12T20:24:44.636Z,101798.81
2022-08-12T20:27:29.320Z,101798.53
2022-08-12T20:30:00.948Z,101805.50
2022-08-12T20:32:47.706Z,101809.75
2022-08-12T20:35:18.291Z,101802.25
2022-08-12T20:38:04.932Z,101801.00
2022-08-12T20:40:34.430Z,101799.56
2022-08-12T20:43:06.676Z,101803.94
2022-08-12T20:45:44.984Z,101795.56
2022-08-12T20:48:17.663Z,101805.53
2022-08-12T20:50:51.921Z,101793.28
2022-08-12T20:53:32.860Z,101800.84
2022-08-12T20:56:35.105Z,101794.75
2022-08-12T20:59:05.765Z,101797.06
2022-08-12T21:01:46.492Z,101796.38
2022-08-12T21:04:34.859Z,101798.84
2022-08-12T21:07:04.578Z,101796.09
2022-08-12T21:09:40.663Z,101789.16
2022-08-12T21:12:28.244Z,101788.31
2022-08-12T21:15:00.780Z,101782.41
2022-08-12T21:18:00.677Z,101788.03
2022-08-12T21:20:32.435Z,101788.91
2022-08-12T21:22:58.867Z,101790.66
2022-08-12T21:25:25.419Z,101789.94
2022-08-12T21:28:05.620Z,101790.22
2022-08-12T21:30:37.157Z,101792.53
2022-08-12T21:33:04.678Z,101789.22
2022-08-12T21:35:39.960Z,101796.31
2022-08-12T21:38:08.137Z,101795.44
2022-08-12T21:40:37.024Z,101791.13
2022-08-12T21:43:06.237Z,101794.44
2022-08-12T21:45:47.527Z,101791.38
2022-08-12T21:48:24.345Z,101799.03
2022-08-12T21:50:52.629Z,101798.03
2022-08-12T21:53:22.635Z,101804.09
2022-08-12T21:56:09.776Z,101803.50
2022-08-12T21:58:56.201Z,101803.06
2022-08-12T22:01:22.908Z,101799.75
2022-08-12T22:04:12.572Z,101797.72
2022-08-12T22:06:43.294Z,101800.88
2022-08-12T22:09:16.412Z,101798.69
2022-08-12T22:11:49.278Z,101802.47
2022-08-12T22:14:24.063Z,101800.00
2022-08-12T22:16:55.833Z,101797.81
2022-08-12T22:19:22.950Z,101797.94
2022-08-12T22:21:54.583Z,101802.28
2022-08-12T22:24:26.880Z,101794.91
2022-08-12T22:27:07.979Z,101795.38
2022-08-12T22:30:06.913Z,101802.16
2022-08-12T22:32:33.851Z,101792.75
2022-08-12T22:35:23.208Z,101795.75
2022-08-12T22:37:50.926Z,101793.56
2022-08-12T22:40:20.227Z,101803.81
2022-08-12T22:43:05.736Z,101794.22
2022-08-12T22:45:56.273Z,101793.38
2022-08-12T22:48:26.425Z,101802.06
2022-08-12T22:50:56.396Z,101791.97
2022-08-12T22:53:26.202Z,101794.59
2022-08-12T22:56:06.685Z,101794.59
2022-08-12T22:58:40.549Z,101787.03
2022-08-12T23:01:07.704Z,101790.19
2022-08-12T23:03:48.962Z,101792.03
2022-08-12T23:06:23.089Z,101796.19
2022-08-12T23:08:54.461Z,101789.44
2022-08-12T23:11:23.558Z,101797.19
2022-08-12T23:13:56.065Z,101787.63
2022-08-12T23:16:30.866Z,101786.16
2022-08-12T23:19:22.948Z,101791.94
2022-08-12T23:22:03.827Z,101794.22
2022-08-12T23:24:53.901Z,101790.00
2022-08-12T23:27:50.267Z,101789.53
2022-08-12T23:30:24.758Z,101788.38
2022-08-12T23:32:54.830Z,101787.28
2022-08-12T23:35:45.827Z,101786.09
2022-08-12T23:38:19.054Z,101785.50
2022-08-12T23:40:57.749Z,101785.03
2022-08-12T23:43:25.448Z,101784.56
2022-08-12T23:46:01.135Z,101787.53
2022-08-12T23:48:31.533Z,101774.97
2022-08-12T23:51:01.445Z,101773.91
2022-08-12T23:53:32.440Z,101781.66
2022-08-12T23:55:59.511Z,101773.69
2022-08-12T23:58:28.524Z,101773.84
